createdAt,value
2017-12-17T00:02:12.187Z,88.95
2017-12-17T00:04:40.640Z,89.14
2017-12-17T00:07:09.175Z,88.69
2017-12-17T00:09:38.411Z,88.40
2017-12-17T00:12:06.851Z,88.51
2017-12-17T00:14:36.138Z,88.23
2017-12-17T00:17:05.355Z,88.76
2017-12-17T00:19:34.588Z,88.42
2017-12-17T00:22:03.255Z,88.15
2017-12-17T00:24:32.472Z,88.28
2017-12-17T00:27:00.906Z,88.57
2017-12-17T00:29:29.738Z,88.56
2017-12-17T00:31:58.166Z,88.00
2017-12-17T00:34:26.606Z,87.65
2017-12-17T00:36:55.489Z,87.35
2017-12-17T00:39:23.918Z,87.71
2017-12-17T00:41:53.111Z,87.29
2017-12-17T00:44:21.586Z,87.07
2017-12-17T00:46:50.038Z,85.71
2017-12-17T00:49:18.462Z,86.32
2017-12-17T00:51:47.083Z,85.84
2017-12-17T00:54:15.562Z,85.86
2017-12-17T00:56:43.991Z,86.20
2017-12-17T00:59:12.734Z,84.52
2017-12-17T01:01:41.154Z,83.98
2017-12-17T01:04:09.594Z,84.68
2017-12-17T01:06:38.275Z,86.42
2017-12-17T01:09:06.691Z,86.69
2017-12-17T01:11:35.137Z,86.96
2017-12-17T01:14:03.719Z,87.37
2017-12-17T01:16:32.182Z,86.56
2017-12-17T01:19:01.414Z,86.38
2017-12-17T01:21:29.922Z,85.83
2017-12-17T01:23:58.372Z,87.64
2017-12-17T01:26:26.866Z,89.38
2017-12-17T01:28:55.734Z,89.25
2017-12-17T01:31:24.152Z,89.72
2017-12-17T01:33:52.575Z,90.40
2017-12-17T01:36:21.987Z,90.54
2017-12-17T01:38:50.423Z,89.86
2017-12-17T01:41:18.890Z,89.65
2017-12-17T01:43:47.638Z,89.79
2017-12-17T01:46:16.102Z,89.75
2017-12-17T01:48:45.322Z,90.03
2017-12-17T01:51:14.955Z,89.21
2017-12-17T01:53:43.430Z,89.41
2017-12-17T01:56:11.927Z,89.78
2017-12-17T01:58:40.435Z,89.15
2017-12-17T02:01:08.899Z,89.58
2017-12-17T02:03:37.351Z,88.99
2017-12-17T02:06:06.939Z,88.68
2017-12-17T02:08:35.390Z,88.32
2017-12-17T02:11:05.366Z,88.88
2017-12-17T02:13:34.119Z,88.95
2017-12-17T02:16:03.358Z,89.81
2017-12-17T02:18:31.814Z,91.04
2017-12-17T02:21:00.359Z,92.53
2017-12-17T02:23:29.602Z,93.27
2017-12-17T02:25:58.071Z,93.02
2017-12-17T02:28:26.752Z,93.62
2017-12-17T02:30:55.223Z,94.06
2017-12-17T02:33:24.475Z,94.42
2017-12-17T02:35:53.322Z,94.05
2017-12-17T02:38:21.775Z,94.46
2017-12-17T02:40:51.018Z,94.72
2017-12-17T02:43:19.527Z,94.92
2017-12-17T02:45:47.995Z,95.27
2017-12-17T02:48:16.451Z,95.12
2017-12-17T02:50:44.950Z,96.01
2017-12-17T02:53:13.410Z,96.31
2017-12-17T02:55:41.875Z,96.79
2017-12-17T02:58:10.382Z,96.99
2017-12-17T03:00:38.839Z,97.08
2017-12-17T03:03:08.079Z,97.28
2017-12-17T03:05:36.826Z,97.37
2017-12-17T03:08:06.046Z,97.56
2017-12-17T03:10:34.494Z,97.12
2017-12-17T03:13:03.770Z,97.15
2017-12-17T03:15:32.314Z,97.00
2017-12-17T03:18:00.803Z,97.32
2017-12-17T03:20:29.661Z,97.19
2017-12-17T03:22:58.110Z,97.21
2017-12-17T03:25:28.078Z,96.83
2017-12-17T03:27:56.598Z,96.52
2017-12-17T03:30:25.084Z,96.44
2017-12-17T03:32:53.574Z,96.42
2017-12-17T03:35:22.066Z,96.16
2017-12-17T03:37:51.298Z,96.29
2017-12-17T03:40:19.753Z,95.54
2017-12-17T03:42:49.022Z,95.69
2017-12-17T03:45:17.510Z,95.45
2017-12-17T03:47:45.982Z,94.83
2017-12-17T03:50:14.710Z,94.89
2017-12-17T03:52:43.187Z,94.88
2017-12-17T03:55:11.650Z,94.58
2017-12-17T03:57:40.932Z,94.88
2017-12-17T04:00:09.402Z,94.43
2017-12-17T04:02:37.850Z,94.75
2017-12-17T04:05:06.679Z,95.51
2017-12-17T04:07:35.115Z,95.76
2017-12-17T04:10:03.589Z,95.20
2017-12-17T04:12:32.080Z,95.69
2017-12-17T04:15:00.555Z,95.69
2017-12-17T04:17:29.047Z,95.58
2017-12-17T04:19:57.918Z,95.64
2017-12-17T04:22:26.374Z,95.98
2017-12-17T04:24:55.610Z,95.82
2017-12-17T04:27:24.282Z,95.96
2017-12-17T04:29:52.738Z,96.00
2017-12-17T04:32:21.966Z,96.81
2017-12-17T04:34:51.384Z,96.77
2017-12-17T04:37:19.838Z,96.55
2017-12-17T04:39:48.302Z,96.31
2017-12-17T04:42:17.576Z,96.98
2017-12-17T04:44:46.047Z,96.95
2017-12-17T04:47:14.515Z,97.39
2017-12-17T04:49:43.158Z,97.10
2017-12-17T04:52:12.386Z,96.85
2017-12-17T04:54:40.850Z,96.77
2017-12-17T04:57:09.386Z,96.99
2017-12-17T04:59:37.850Z,96.51
2017-12-17T05:02:06.321Z,96.45
2017-12-17T05:04:35.186Z,96.09
2017-12-17T05:07:03.646Z,95.92
2017-12-17T05:09:32.865Z,96.05
2017-12-17T05:12:01.370Z,96.00
2017-12-17T05:14:29.846Z,95.37
2017-12-17T05:16:58.313Z,95.33
2017-12-17T05:19:26.999Z,95.23
2017-12-17T05:21:55.554Z,95.07
2017-12-17T05:24:24.782Z,94.51
2017-12-17T05:26:53.288Z,95.58
2017-12-17T05:29:21.762Z,96.10
2017-12-17T05:31:50.250Z,96.09
2017-12-17T05:34:18.907Z,96.19
2017-12-17T05:36:47.366Z,95.12
2017-12-17T05:39:16.606Z,94.84
2017-12-17T05:41:45.265Z,95.14
2017-12-17T05:44:13.743Z,95.49
2017-12-17T05:46:42.210Z,94.80
2017-12-17T05:49:11.739Z,94.50
2017-12-17T05:51:40.214Z,95.43
2017-12-17T05:54:08.683Z,95.01
2017-12-17T05:56:38.102Z,94.92
2017-12-17T05:59:06.578Z,94.58
2017-12-17T06:01:35.046Z,95.58
2017-12-17T06:04:04.466Z,95.26
2017-12-17T06:06:32.936Z,95.38
2017-12-17T06:09:01.396Z,95.60
2017-12-17T06:11:30.139Z,95.12
2017-12-17T06:13:59.386Z,95.15
2017-12-17T06:16:27.856Z,94.96
2017-12-17T06:18:56.723Z,94.84
2017-12-17T06:21:25.285Z,95.04
2017-12-17T06:23:55.430Z,95.17
2017-12-17T06:26:24.232Z,94.91
2017-12-17T06:28:52.968Z,95.05
2017-12-17T06:31:22.441Z,94.58
2017-12-17T06:33:51.483Z,94.58
2017-12-17T06:36:20.176Z,94.02
2017-12-17T06:38:48.895Z,93.61
2017-12-17T06:41:17.888Z,93.39
2017-12-17T06:43:46.684Z,92.91
2017-12-17T06:46:15.370Z,91.50
2017-12-17T06:48:44.312Z,91.33
2017-12-17T06:51:13.766Z,91.14
2017-12-17T06:53:42.547Z,90.92
2017-12-17T06:56:11.242Z,90.82
2017-12-17T06:58:39.959Z,91.47
2017-12-17T07:01:09.634Z,92.07
2017-12-17T07:03:38.372Z,91.29
2017-12-17T07:06:07.836Z,91.04
2017-12-17T07:08:37.583Z,91.78
2017-12-17T07:11:07.144Z,92.20
2017-12-17T07:13:35.868Z,92.65
2017-12-17T07:16:05.333Z,92.48
2017-12-17T07:18:34.027Z,92.15
2017-12-17T07:21:02.744Z,92.06
2017-12-17T07:23:32.564Z,91.61
2017-12-17T07:26:01.282Z,91.78
2017-12-17T07:28:30.775Z,91.89
2017-12-17T07:31:00.393Z,92.55
2017-12-17T07:33:29.851Z,92.13
2017-12-17T07:35:58.646Z,92.15
2017-12-17T07:38:27.320Z,91.78
2017-12-17T07:40:56.039Z,92.50
2017-12-17T07:43:24.752Z,92.29
2017-12-17T07:45:54.397Z,91.43
2017-12-17T07:48:23.117Z,91.60
2017-12-17T07:50:52.605Z,91.38
2017-12-17T07:53:21.291Z,91.35
2017-12-17T07:55:49.967Z,91.04
2017-12-17T07:58:18.689Z,92.21
2017-12-17T08:00:47.602Z,92.61
2017-12-17T08:03:17.098Z,93.59
2017-12-17T08:05:46.564Z,93.19
2017-12-17T08:08:15.544Z,93.82
2017-12-17T08:10:44.233Z,94.31
2017-12-17T08:13:12.916Z,93.72
2017-12-17T08:15:41.712Z,93.55
2017-12-17T08:18:10.412Z,92.62
2017-12-17T08:20:39.100Z,92.41
2017-12-17T08:23:08.176Z,91.00
2017-12-17T08:25:36.906Z,91.68
2017-12-17T08:28:06.427Z,91.97
2017-12-17T08:30:35.216Z,91.85
2017-12-17T08:33:04.712Z,91.89
2017-12-17T08:35:34.204Z,91.91
2017-12-17T08:38:03.823Z,91.00
2017-12-17T08:40:33.287Z,90.59
2017-12-17T08:43:02.004Z,90.42
2017-12-17T08:45:31.826Z,90.03
2017-12-17T08:48:01.319Z,89.60
2017-12-17T08:50:30.784Z,90.32
2017-12-17T08:52:59.826Z,91.22
2017-12-17T08:55:29.288Z,90.19
2017-12-17T08:57:57.973Z,90.34
2017-12-17T09:00:26.659Z,89.41
2017-12-17T09:02:55.350Z,89.90
2017-12-17T09:05:24.050Z,90.21
2017-12-17T09:07:53.782Z,90.58
2017-12-17T09:10:23.253Z,90.52
2017-12-17T09:12:52.030Z,90.01
2017-12-17T09:15:21.232Z,89.57
2017-12-17T09:17:50.017Z,88.82
2017-12-17T09:20:18.701Z,88.14
2017-12-17T09:22:47.905Z,88.62
2017-12-17T09:25:16.688Z,88.74
2017-12-17T09:27:45.275Z,88.28
2017-12-17T09:30:14.246Z,89.63
2017-12-17T09:32:42.939Z,89.52
2017-12-17T09:35:12.507Z,88.58
2017-12-17T09:37:42.365Z,89.94
2017-12-17T09:40:11.164Z,90.07
2017-12-17T09:42:39.860Z,90.70
2017-12-17T09:45:08.724Z,91.06
2017-12-17T09:47:37.417Z,90.62
2017-12-17T09:50:06.114Z,90.22
2017-12-17T09:52:34.790Z,90.06
2017-12-17T09:55:03.369Z,89.77
2017-12-17T09:57:32.064Z,90.33
2017-12-17T10:00:01.686Z,89.54
2017-12-17T10:02:31.148Z,89.13
2017-12-17T10:04:59.841Z,89.13
2017-12-17T10:07:28.607Z,87.93
2017-12-17T10:09:57.356Z,88.23
2017-12-17T10:12:26.820Z,87.06
2017-12-17T10:14:55.771Z,88.14
2017-12-17T10:17:24.489Z,87.07
2017-12-17T10:19:53.180Z,87.03
2017-12-17T10:22:21.862Z,87.41
2017-12-17T10:24:50.560Z,87.57
2017-12-17T10:27:19.234Z,87.58
2017-12-17T10:29:48.231Z,87.24
2017-12-17T10:32:16.962Z,87.29
2017-12-17T10:34:46.434Z,87.87
2017-12-17T10:37:15.513Z,88.37
2017-12-17T10:39:44.308Z,88.60
2017-12-17T10:42:13.094Z,88.49
2017-12-17T10:44:42.131Z,88.23
2017-12-17T10:47:11.584Z,88.08
2017-12-17T10:49:40.281Z,88.90
2017-12-17T10:52:09.084Z,88.97
2017-12-17T10:54:38.629Z,88.60
2017-12-17T10:57:09.136Z,88.71
2017-12-17T10:59:37.869Z,88.94
2017-12-17T11:02:07.351Z,90.44
2017-12-17T11:04:36.172Z,90.98
2017-12-17T11:07:04.999Z,91.38
2017-12-17T11:09:33.795Z,91.41
2017-12-17T11:12:02.770Z,91.14
2017-12-17T11:14:31.493Z,91.16
2017-12-17T11:17:00.188Z,91.32
2017-12-17T11:19:29.929Z,91.33
2017-12-17T11:21:58.668Z,89.83
2017-12-17T11:24:27.349Z,89.28
2017-12-17T11:26:56.132Z,89.62
2017-12-17T11:29:24.917Z,88.49
2017-12-17T11:31:53.706Z,89.09
2017-12-17T11:34:22.511Z,88.95
2017-12-17T11:36:51.228Z,89.28
2017-12-17T11:39:20.682Z,89.81
2017-12-17T11:41:49.414Z,89.81
2017-12-17T11:44:18.875Z,88.86
2017-12-17T11:46:47.660Z,89.44
2017-12-17T11:49:16.699Z,88.61
2017-12-17T11:51:45.432Z,89.19
2017-12-17T11:54:14.126Z,89.46
2017-12-17T11:56:42.846Z,87.88
2017-12-17T11:59:11.562Z,88.55
2017-12-17T12:01:40.291Z,88.44
2017-12-17T12:04:09.348Z,88.13
2017-12-17T12:06:38.016Z,88.86
2017-12-17T12:09:07.484Z,89.31
2017-12-17T12:11:36.326Z,89.79
2017-12-17T12:14:05.046Z,90.25
2017-12-17T12:16:33.784Z,90.20
2017-12-17T12:19:03.254Z,90.40
2017-12-17T12:21:31.972Z,90.55
2017-12-17T12:24:01.465Z,89.91
2017-12-17T12:26:30.937Z,90.24
2017-12-17T12:29:00.622Z,89.86
2017-12-17T12:31:29.331Z,91.15
2017-12-17T12:33:58.329Z,91.91
2017-12-17T12:36:27.723Z,92.34
2017-12-17T12:38:56.475Z,91.10
2017-12-17T12:41:25.368Z,90.67
2017-12-17T12:43:54.154Z,90.81
2017-12-17T12:46:22.875Z,90.67
2017-12-17T12:48:52.637Z,91.85
2017-12-17T12:51:21.337Z,91.42
2017-12-17T12:53:50.078Z,89.89
2017-12-17T12:56:19.566Z,90.23
2017-12-17T12:58:49.037Z,90.35
2017-12-17T13:01:17.732Z,91.50
2017-12-17T13:03:46.449Z,92.30
2017-12-17T13:06:15.929Z,92.79
2017-12-17T13:08:46.135Z,93.27
2017-12-17T13:11:15.129Z,93.46
2017-12-17T13:13:43.913Z,93.11
2017-12-17T13:16:12.697Z,92.80
2017-12-17T13:18:41.425Z,92.73
2017-12-17T13:21:10.922Z,93.45
2017-12-17T13:23:40.439Z,93.64
2017-12-17T13:26:09.929Z,93.33
2017-12-17T13:28:38.621Z,92.30
2017-12-17T13:31:07.315Z,91.92
2017-12-17T13:33:37.087Z,92.00
2017-12-17T13:36:05.802Z,91.72
2017-12-17T13:38:35.993Z,91.96
2017-12-17T13:41:05.039Z,91.79
2017-12-17T13:43:33.731Z,91.15
2017-12-17T13:46:02.359Z,91.56
2017-12-17T13:48:31.143Z,92.73
2017-12-17T13:50:59.942Z,92.24
2017-12-17T13:53:28.625Z,91.48
2017-12-17T13:55:57.344Z,91.36
2017-12-17T13:58:26.809Z,90.29
2017-12-17T14:00:55.499Z,89.34
2017-12-17T14:03:24.546Z,88.77
2017-12-17T14:05:54.041Z,89.40
2017-12-17T14:08:23.509Z,89.93
2017-12-17T14:10:52.696Z,89.03
2017-12-17T14:13:21.381Z,88.79
2017-12-17T14:15:50.177Z,89.17
2017-12-17T14:18:19.268Z,89.22
2017-12-17T14:20:47.998Z,88.07
2017-12-17T14:23:17.569Z,87.93
2017-12-17T14:25:46.345Z,87.29
2017-12-17T14:28:15.073Z,87.48
2017-12-17T14:30:44.569Z,88.37
2017-12-17T14:33:14.086Z,88.33
2017-12-17T14:35:43.656Z,89.19
2017-12-17T14:38:18.376Z,89.46
2017-12-17T14:40:47.172Z,90.72
2017-12-17T14:43:15.908Z,91.46
2017-12-17T14:45:45.357Z,89.93
2017-12-17T14:48:14.152Z,89.93
2017-12-17T14:50:42.885Z,90.00
2017-12-17T14:53:12.379Z,90.31
2017-12-17T14:55:41.845Z,90.07
2017-12-17T14:58:10.628Z,89.09
2017-12-17T15:00:39.725Z,89.51
2017-12-17T15:03:08.516Z,90.79
2017-12-17T15:05:37.268Z,90.23
2017-12-17T15:08:06.096Z,90.13
2017-12-17T15:10:34.881Z,90.65
2017-12-17T15:13:03.665Z,90.74
2017-12-17T15:15:32.710Z,90.59
2017-12-17T15:18:02.168Z,90.50
2017-12-17T15:20:30.951Z,90.46
2017-12-17T15:22:59.748Z,90.38
2017-12-17T15:25:28.433Z,90.15
2017-12-17T15:27:57.108Z,90.47
2017-12-17T15:30:26.100Z,89.92
2017-12-17T15:32:54.861Z,89.63
2017-12-17T15:35:23.581Z,89.22
2017-12-17T15:37:52.367Z,88.68
2017-12-17T15:40:21.063Z,88.28
2017-12-17T15:42:49.781Z,88.37
2017-12-17T15:45:18.611Z,88.28
2017-12-17T15:47:47.339Z,87.94
2017-12-17T15:50:16.904Z,88.52
2017-12-17T15:52:45.699Z,88.34
2017-12-17T15:55:14.420Z,87.55
2017-12-17T15:57:43.885Z,87.24
2017-12-17T16:00:12.831Z,87.15
2017-12-17T16:02:41.526Z,86.57
2017-12-17T16:05:10.156Z,86.58
2017-12-17T16:07:39.144Z,85.89
2017-12-17T16:10:07.927Z,85.82
2017-12-17T16:12:36.664Z,86.04
2017-12-17T16:15:06.528Z,85.24
2017-12-17T16:17:35.213Z,85.97
2017-12-17T16:20:03.809Z,86.52
2017-12-17T16:22:32.540Z,86.66
2017-12-17T16:25:01.271Z,87.19
2017-12-17T16:27:29.924Z,87.43
2017-12-17T16:29:59.092Z,87.93
2017-12-17T16:32:28.558Z,88.74
2017-12-17T16:34:57.243Z,89.13
2017-12-17T16:37:26.039Z,88.82
2017-12-17T16:39:54.762Z,89.09
2017-12-17T16:42:24.222Z,89.85
2017-12-17T16:44:52.961Z,89.57
2017-12-17T16:47:22.301Z,89.75
2017-12-17T16:49:51.004Z,90.57
2017-12-17T16:52:19.680Z,90.17
2017-12-17T16:54:48.338Z,90.15
2017-12-17T16:57:16.921Z,89.47
2017-12-17T16:59:45.879Z,88.94
2017-12-17T17:02:14.599Z,89.11
2017-12-17T17:04:43.265Z,89.16
2017-12-17T17:07:12.079Z,88.69
2017-12-17T17:09:40.865Z,88.34
2017-12-17T17:12:09.437Z,88.51
2017-12-17T17:14:38.336Z,88.18
2017-12-17T17:17:07.022Z,87.83
2017-12-17T17:19:36.471Z,87.96
2017-12-17T17:22:06.389Z,87.49
2017-12-17T17:24:35.843Z,86.03
2017-12-17T17:27:04.474Z,86.18
2017-12-17T17:29:33.992Z,85.94
2017-12-17T17:32:02.726Z,85.59
2017-12-17T17:34:31.508Z,85.01
2017-12-17T17:37:00.403Z,84.32
2017-12-17T17:39:29.188Z,85.19
2017-12-17T17:41:57.858Z,84.46
2017-12-17T17:44:26.669Z,85.71
2017-12-17T17:47:01.192Z,84.61
2017-12-17T17:49:29.935Z,84.76
2017-12-17T17:51:58.670Z,84.54
2017-12-17T17:54:27.369Z,83.52
2017-12-17T17:56:56.288Z,84.09
2017-12-17T17:59:25.739Z,83.46
2017-12-17T18:01:54.289Z,83.64
2017-12-17T18:04:23.114Z,82.61
2017-12-17T18:06:51.906Z,82.42
2017-12-17T18:09:20.692Z,81.89
2017-12-17T18:11:49.376Z,82.23
2017-12-17T18:14:18.068Z,82.85
2017-12-17T18:16:46.701Z,82.98
2017-12-17T18:19:16.419Z,82.07
2017-12-17T18:21:45.141Z,83.28
2017-12-17T18:24:13.780Z,81.62
2017-12-17T18:26:43.434Z,82.76
2017-12-17T18:29:11.981Z,82.37
2017-12-17T18:31:40.658Z,83.03
2017-12-17T18:34:10.216Z,83.01
2017-12-17T18:36:39.002Z,82.76
2017-12-17T18:39:07.688Z,82.48
2017-12-17T18:41:36.481Z,82.74
2017-12-17T18:44:05.157Z,82.58
2017-12-17T18:46:33.789Z,82.47
2017-12-17T18:49:04.274Z,82.97
2017-12-17T18:51:32.958Z,82.04
2017-12-17T18:54:01.536Z,82.20
2017-12-17T18:56:30.331Z,82.90
2017-12-17T18:58:59.115Z,83.52
2017-12-17T19:01:27.803Z,82.71
2017-12-17T19:03:57.362Z,83.23
2017-12-17T19:06:26.094Z,82.93
2017-12-17T19:08:54.781Z,83.40
2017-12-17T19:11:23.915Z,82.67
2017-12-17T19:13:53.380Z,82.85
2017-12-17T19:16:22.146Z,81.50
2017-12-17T19:18:51.118Z,80.67
2017-12-17T19:21:19.705Z,81.31
2017-12-17T19:23:48.250Z,81.45
2017-12-17T19:26:17.813Z,81.62
2017-12-17T19:28:46.596Z,81.41
2017-12-17T19:31:15.231Z,81.38
2017-12-17T19:33:44.798Z,81.62
2017-12-17T19:36:14.256Z,82.06
2017-12-17T19:38:42.941Z,81.93
2017-12-17T19:41:11.902Z,80.88
2017-12-17T19:43:40.621Z,81.15
2017-12-17T19:46:09.261Z,81.62
2017-12-17T19:48:37.992Z,81.70
2017-12-17T19:51:06.534Z,82.51
2017-12-17T19:53:35.979Z,83.37
2017-12-17T19:56:04.972Z,83.63
2017-12-17T19:58:33.599Z,84.22
2017-12-17T20:01:03.066Z,83.52
2017-12-17T20:03:31.950Z,83.70
2017-12-17T20:06:00.637Z,83.31
2017-12-17T20:08:29.322Z,83.24
2017-12-17T20:10:58.008Z,82.95
2017-12-17T20:13:26.700Z,82.38
2017-12-17T20:15:55.323Z,82.40
2017-12-17T20:18:24.889Z,82.18
2017-12-17T20:20:53.633Z,82.33
2017-12-17T20:23:22.261Z,82.21
2017-12-17T20:25:51.044Z,81.90
2017-12-17T20:28:19.730Z,82.99
2017-12-17T20:30:48.417Z,83.57
2017-12-17T20:33:17.629Z,83.51
2017-12-17T20:35:46.303Z,83.72
2017-12-17T20:38:14.998Z,83.39
2017-12-17T20:40:43.924Z,83.24
2017-12-17T20:43:13.381Z,81.94
2017-12-17T20:45:41.924Z,82.29
2017-12-17T20:48:10.963Z,83.39
2017-12-17T20:50:39.648Z,83.00
2017-12-17T20:53:08.334Z,82.63
2017-12-17T20:55:37.026Z,81.97
2017-12-17T20:58:05.753Z,81.97
2017-12-17T21:00:35.213Z,81.85
2017-12-17T21:03:03.933Z,81.78
2017-12-17T21:05:33.397Z,82.56
2017-12-17T21:08:02.044Z,81.77
2017-12-17T21:10:30.813Z,81.74
2017-12-17T21:13:00.120Z,81.57
2017-12-17T21:15:29.521Z,81.71
2017-12-17T21:17:59.087Z,81.18
2017-12-17T21:20:27.650Z,80.75
2017-12-17T21:22:56.353Z,81.31
2017-12-17T21:25:25.342Z,80.85
2017-12-17T21:27:54.140Z,80.83
2017-12-17T21:30:22.822Z,81.30
2017-12-17T21:32:51.608Z,80.41
2017-12-17T21:35:20.294Z,81.50
2017-12-17T21:37:48.980Z,81.15
2017-12-17T21:40:17.664Z,80.97
2017-12-17T21:42:46.352Z,80.83
2017-12-17T21:45:14.940Z,80.86
2017-12-17T21:47:44.644Z,80.81
2017-12-17T21:50:13.330Z,80.73
2017-12-17T21:52:42.016Z,81.12
2017-12-17T21:55:10.912Z,80.72
2017-12-17T21:57:39.542Z,80.96
2017-12-17T22:00:09.203Z,81.88
2017-12-17T22:02:37.930Z,81.73
2017-12-17T22:05:07.388Z,81.94
2017-12-17T22:07:35.974Z,82.11
2017-12-17T22:10:04.759Z,81.63
2017-12-17T22:12:33.444Z,81.96
2017-12-17T22:15:02.105Z,82.30
2017-12-17T22:17:30.856Z,81.81
2017-12-17T22:20:00.229Z,82.20
2017-12-17T22:22:28.844Z,81.95
2017-12-17T22:24:58.564Z,81.61
2017-12-17T22:27:28.017Z,81.76
2017-12-17T22:29:56.650Z,81.54
2017-12-17T22:32:27.061Z,81.32
2017-12-17T22:34:55.710Z,81.54
2017-12-17T22:37:24.406Z,81.48
2017-12-17T22:39:53.080Z,81.64
2017-12-17T22:42:21.879Z,82.04
2017-12-17T22:44:50.661Z,81.74
2017-12-17T22:47:19.624Z,81.82
2017-12-17T22:49:48.340Z,82.81
2017-12-17T22:52:17.027Z,82.23
2017-12-17T22:54:45.919Z,82.73
2017-12-17T22:57:14.705Z,82.63
2017-12-17T22:59:43.392Z,83.07
2017-12-17T23:02:12.692Z,83.00
2017-12-17T23:04:41.263Z,83.42
2017-12-17T23:07:09.965Z,82.66
2017-12-17T23:09:38.749Z,82.90
2017-12-17T23:12:07.442Z,82.54
2017-12-17T23:14:36.066Z,83.31
2017-12-17T23:17:05.630Z,83.24
2017-12-17T23:19:34.414Z,82.41
2017-12-17T23:22:03.099Z,83.87
2017-12-17T23:24:31.936Z,84.66
2017-12-17T23:27:01.393Z,84.83
2017-12-17T23:29:29.979Z,84.84
2017-12-17T23:31:58.666Z,84.75
2017-12-17T23:34:27.381Z,84.96
2017-12-17T23:36:57.574Z,84.95
2017-12-17T23:39:26.567Z,84.87
2017-12-17T23:41:55.352Z,84.91
2017-12-17T23:44:24.037Z,84.96
2017-12-17T23:46:52.932Z,84.58
2017-12-17T23:49:21.518Z,85.59
2017-12-17T23:51:50.192Z,86.04
2017-12-17T23:54:18.922Z,86.25
2017-12-17T23:56:48.236Z,86.34
2017-12-17T23:59:17.577Z,86.00
